• Join FlightAware (Why Join?)
  • Login
  • US Flag 
12:14AM EDT


 

Airport Tracker/Info


-or-


 

Live Flight TrackerFlight Track Log ✈ N468QS ✈ 12/Sep/2013 ✈ KSAT - KCOS

Flight Track Log - Related Links

Times and Time Zones

All times are in EDT time to prevent confusion due to time zone crossing. See the N468QS flight status page for this flight to view local times or setup timezone preferences in your user account.

Time Position Orientation Groundspeed Altitude Reporting Facility
EDT Latitude Longitude Course Direction KTS MPH feet Rate Location/Type
10:33AM 29.5222 -98.4592 126° Southeast 209 241 1,900  Level Houston Center
10:33AM 29.5181 -98.4525 126° Southeast 202 232 2,600 3,600 Climbing Houston Center
10:33AM 29.5081 -98.4417 137° Southeast 211 243 3,400 3,720 Climbing Houston Center
10:34AM 29.4889 -98.3958 116° Southeast 214 246 6,500 3,360 Climbing Houston Center
10:34AM 29.5022 -98.3775 50° Northeast 248 285 7,100 3,180 Climbing Houston Center
10:35AM 29.5564 -98.3722 North 283 326 9,800 2,640 Climbing Houston Center
10:36AM 29.6517 -98.3764 358° North 338 389 11,700 2,340 Climbing Houston Center
10:37AM 29.7544 -98.3817 357° North 368 423 14,700 2,760 Climbing Houston Center
10:38AM 29.8603 -98.4317 338° Northwest 381 438 17,500 2,400 Climbing Houston Center
10:39AM 29.9614 -98.4847 336° Northwest 397 457 19,700 2,040 Climbing Houston Center
10:40AM 30.0742 -98.5456 335° Northwest 414 476 21,800 2,460 Climbing Houston Center
10:41AM 30.1800 -98.6025 335° Northwest 419 482 24,800 2,580 Climbing Houston Center
10:42AM 30.2917 -98.6619 335° Northwest 410 472 27,200 1,800 Climbing Houston Center
10:43AM 30.3817 -98.7094 336° Northwest 415 478 28,600 1,620 Climbing Houston Center
10:44AM 30.5092 -98.7775 335° Northwest 427 491 30,600 1,740 Climbing Houston Center
10:45AM 30.6211 -98.8383 335° Northwest 436 502 32,300 1,680 Climbing Houston Center
10:46AM 30.7311 -98.8983 335° Northwest 434 499 34,100 1,680 Climbing Houston Center
10:47AM 30.8408 -98.9567 335° Northwest 430 495 35,900 1,680 Climbing Houston Center
10:48AM 30.9503 -99.0169 335° Northwest 429 494 37,600 1,740 Climbing Houston Center
10:49AM 31.0569 -99.0750 335° Northwest 421 484 39,500 1,140 Climbing Houston Center
10:50AM 31.1636 -99.1342 335° Northwest 419 482 40,000 240 Climbing Houston Center
10:51AM 31.2753 -99.1939 335° Northwest 421 484 40,000  Level Houston Center
10:52AM 31.3969 -99.2606 335° Northwest 422 486 40,000  Level Houston Center
10:53AM 31.5039 -99.3200 335° Northwest 420 483 40,000  Level Houston Center
10:55AM 31.6125 -99.3786 335° Northwest 423 487 40,000  Level Houston Center
10:55AM 31.6608 -99.4075 333° Northwest 422 486 40,000  Level Fort Worth Center
10:56AM 31.7664 -99.4658 335° Northwest 422 486 40,000  Level Fort Worth Center
10:57AM 31.8739 -99.5244 335° Northwest 422 486 40,000  Level Fort Worth Center
10:58AM 31.9794 -99.5833 335° Northwest 422 486 40,000  Level Fort Worth Center
10:59AM 32.0869 -99.6422 335° Northwest 422 486 40,000  Level Fort Worth Center
11:00AM 32.1925 -99.7014 335° Northwest 422 486 40,000  Level Fort Worth Center
11:01AM 32.2958 -99.7606 334° Northwest 422 486 40,000  Level Fort Worth Center
11:02AM 32.4031 -99.8222 334° Northwest 422 486 40,000  Level Fort Worth Center
11:03AM 32.5064 -99.8842 333° Northwest 422 486 40,000  Level Fort Worth Center
11:04AM 32.6239 -99.9589 332° Northwest 416 479 40,000  Level Fort Worth Center
11:05AM 32.7269 -100.0236 332° Northwest 427 491 40,000  Level Fort Worth Center
11:06AM 32.8339 -100.0936 331° Northwest 438 504 40,000  Level Fort Worth Center
11:07AM 32.9369 -100.1608 331° Northwest 433 498 40,000  Level Fort Worth Center
11:08AM 33.0378 -100.2236 332° Northwest 422 486 40,000  Level Fort Worth Center
11:09AM 33.1425 -100.2939 331° Northwest 422 486 40,000  Level Fort Worth Center
11:10AM 33.2453 -100.3592 332° Northwest 422 486 40,000  Level Fort Worth Center
11:11AM 33.3461 -100.4272 331° Northwest 422 486 40,000  Level Fort Worth Center
11:12AM 33.4508 -100.4956 331° Northwest 422 486 40,000  Level Fort Worth Center
11:13AM 33.5536 -100.5614 332° Northwest 422 486 40,000  Level Fort Worth Center
11:14AM 33.6561 -100.6300 331° Northwest 417 480 40,000  Level Fort Worth Center
11:15AM 33.7608 -100.6989 331° Northwest 417 480 40,000  Level Fort Worth Center
11:16AM 33.8633 -100.7678 331° Northwest 420 483 40,000  Level Fort Worth Center
11:17AM 33.9678 -100.8394 330° Northwest 420 483 40,000  Level Fort Worth Center
11:19AM 34.1794 -100.9772 332° Northwest 427 491 40,000  Level Albuquerque Center
11:20AM 34.3047 -101.0617 331° Northwest 430 495 40,000  Level Albuquerque Center
11:21AM 34.4089 -101.1319 331° Northwest 430 495 40,000  Level Albuquerque Center
11:22AM 34.5128 -101.2039 330° Northwest 429 494 40,000  Level Albuquerque Center
11:23AM 34.6172 -101.2742 331° Northwest 429 494 40,000  Level Albuquerque Center
11:24AM 34.7217 -101.3453 331° Northwest 429 494 40,000  Level Albuquerque Center
11:26AM 34.8258 -101.4167 331° Northwest 430 495 40,000  Level Albuquerque Center
11:27AM 34.9500 -101.5014 331° Northwest 428 493 40,000  Level Albuquerque Center
11:28AM 35.0531 -101.5722 331° Northwest 436 502 40,000  Level Albuquerque Center
11:29AM 35.1586 -101.6458 330° Northwest 436 502 40,000  Level Albuquerque Center
11:30AM 35.2700 -101.7281 329° Northwest 433 498 40,000  Level Albuquerque Center
11:31AM 35.3681 -101.8172 323° Northwest 435 501 40,000  Level Albuquerque Center
11:32AM 35.4656 -101.9064 323° Northwest 435 501 40,000  Level Albuquerque Center
11:33AM 35.5619 -101.9972 323° Northwest 432 497 40,000  Level Albuquerque Center
11:34AM 35.6575 -102.0864 323° Northwest 432 497 40,000  Level Albuquerque Center
11:35AM 35.7742 -102.1928 324° Northwest 434 499 40,000  Level Albuquerque Center
11:36AM 35.8706 -102.2825 323° Northwest 436 502 40,000  Level Albuquerque Center
11:37AM 35.9656 -102.3719 323° Northwest 432 497 40,000  Level Albuquerque Center
11:38AM 36.0631 -102.4614 323° Northwest 435 501 40,000  Level Albuquerque Center
11:39AM 36.1586 -102.5525 322° Northwest 435 501 40,000  Level Albuquerque Center
11:40AM 36.2556 -102.6428 323° Northwest 435 501 40,000  Level Albuquerque Center
11:41AM 36.3714 -102.7508 323° Northwest 435 501 40,000 -360 Level Albuquerque Center
11:42AM 36.4672 -102.8422 323° Northwest 435 501 39,300 -840 Descending Albuquerque Center
11:43AM 36.5647 -102.9344 323° Northwest 437 503 38,300 -960 Descending Albuquerque Center
11:44AM 36.6672 -103.0317 323° Northwest 441 507 37,300 -1,020 Descending Albuquerque Center
11:45AM 36.7631 -103.1242 322° Northwest 449 517 36,300 -1,020 Descending Albuquerque Center
11:46AM 36.8756 -103.2314 323° Northwest 453 521 35,200 -1,020 Descending Albuquerque Center
11:47AM 36.9739 -103.3250 323° Northwest 460 529 34,200 -600 Descending Albuquerque Center
11:48AM 37.0928 -103.4400 322° Northwest 479 551 34,000 -120 Descending Albuquerque Center
11:49AM 37.1936 -103.5375 322° Northwest 479 551 34,000  Level Albuquerque Center
11:50AM 37.3053 -103.6567 320° Northwest 472 543 34,000 -300 Level Albuquerque Center
11:51AM 37.3981 -103.7631 318° Northwest 472 543 33,500 -840 Descending Albuquerque Center
11:53AM 37.5219 -103.9056 318° Northwest 476 548 32,200 -1,080 Descending Denver Center
11:54AM 37.6278 -104.0328 316° Northwest 490 564 31,100 -1,860 Descending Denver Center
11:55AM 37.7350 -104.1606 317° Northwest 480 552 28,400 -2,760 Descending Denver Center
11:56AM 37.8256 -104.2681 317° Northwest 469 540 25,400 -3,000 Descending Denver Center
11:57AM 37.9239 -104.3853 317° Northwest 437 503 22,200 -3,120 Descending Denver Center
11:58AM 38.0056 -104.4817 317° Northwest 423 487 19,000 -2,760 Descending Denver Center
11:59AM 38.0844 -104.5769 316° Northwest 413 475 16,600 -1,380 Descending Denver Center
12:00PM 38.1839 -104.6475 331° Northwest 380 437 16,000 -240 Descending Denver Center
12:01PM 38.3069 -104.6458 North 347 399 16,100 -240 Climbing Denver Center
12:02PM 38.3931 -104.6486 359° North 330 380 15,600 -1,260 Descending Denver Center
12:03PM 38.4858 -104.6997 337° Northwest 323 372 13,600 -1,740 Descending Denver Center
12:03PM 38.5114 -104.7125 339° North 313 360 13,300 -1,080 Descending Denver Center
12:04PM 38.5592 -104.7139 359° North 281 323 12,500 -1,020 Descending Denver Center
12:05PM 38.6044 -104.7158 358° North 221 254 11,600 -1,980 Descending Denver Center
12:06PM 38.6728 -104.7133 North 196 226 8,500 -1,980 Descending Denver Center
12:07PM 38.7161 -104.7111 North 179 206 7,600 -900 Descending Denver Center
12:08PM 38.7250 -104.7153 340° North 155 178 7,400 -900 Descending Denver Center
12:08PM 38.7633 -104.7122 North 162 186 6,700 -420 Descending Denver Center
12:09PM 38.7961 -104.7117 North 162 186 6,700  Level Denver Center
12:11PM 38.8058 -104.7008 24° Northeast  Level Estimated
12:18PM 38.8000 -104.7000 204° Southwest  Level FlightAware Approximate
12:19PM 38.8058 -104.7008 204° Southwest  Level Estimated
12:20PM 38.8000 -104.7000 204° Southwest  Level FlightAware Approximate